createdAt,value
2022-08-26T00:01:54.444Z,6.85
2022-08-26T00:04:25.297Z,6.60
2022-08-26T00:06:55.686Z,6.65
2022-08-26T00:09:24.949Z,7.00
2022-08-26T00:11:54.016Z,6.87
2022-08-26T00:14:25.932Z,6.53
2022-08-26T00:16:56.120Z,6.47
2022-08-26T00:19:23.905Z,7.28
2022-08-26T00:21:52.318Z,8.10
2022-08-26T00:24:21.833Z,7.28
2022-08-26T00:26:49.648Z,6.68
2022-08-26T00:29:17.984Z,7.25
2022-08-26T00:31:45.928Z,6.80
2022-08-26T00:34:14.301Z,6.37
2022-08-26T00:36:43.611Z,6.95
2022-08-26T00:39:11.777Z,7.18
2022-08-26T00:41:40.260Z,7.10
2022-08-26T00:44:08.828Z,6.95
2022-08-26T00:46:39.994Z,7.25
2022-08-26T00:49:26.447Z,6.78
2022-08-26T00:51:58.884Z,6.82
2022-08-26T00:54:27.833Z,6.43
2022-08-26T00:56:59.930Z,7.25
2022-08-26T00:59:29.318Z,7.00
2022-08-26T01:02:02.760Z,6.60
2022-08-26T01:04:31.902Z,6.20
2022-08-26T01:07:00.108Z,6.47
2022-08-26T01:09:46.367Z,6.85
2022-08-26T01:12:14.455Z,6.07
2022-08-26T01:14:41.927Z,6.43
2022-08-26T01:17:15.252Z,6.25
2022-08-26T01:19:49.355Z,6.22
2022-08-26T01:22:28.175Z,7.15
2022-08-26T01:24:59.175Z,7.43
2022-08-26T01:27:32.519Z,6.95
2022-08-26T01:30:01.309Z,6.18
2022-08-26T01:32:32.263Z,6.65
2022-08-26T01:34:59.892Z,6.70
2022-08-26T01:37:32.617Z,7.35
2022-08-26T01:40:00.577Z,7.40
2022-08-26T01:42:28.519Z,6.80
2022-08-26T01:44:59.981Z,7.53
2022-08-26T01:47:30.261Z,7.32
2022-08-26T01:50:00.309Z,6.85
2022-08-26T01:52:30.469Z,6.60
2022-08-26T01:54:58.796Z,7.32
2022-08-26T01:57:26.784Z,7.10
2022-08-26T01:59:56.534Z,7.00
2022-08-26T02:02:24.589Z,6.82
2022-08-26T02:04:56.821Z,8.07
2022-08-26T02:07:26.527Z,6.80
2022-08-26T02:09:55.099Z,7.55
2022-08-26T02:12:22.963Z,7.07
2022-08-26T02:14:53.771Z,8.20
2022-08-26T02:17:25.902Z,7.53
2022-08-26T02:19:53.556Z,7.07
2022-08-26T02:22:24.579Z,7.57
2022-08-26T02:24:56.243Z,7.18
2022-08-26T02:27:32.492Z,7.97
2022-08-26T02:30:20.802Z,7.75
2022-08-26T02:32:49.770Z,7.82
2022-08-26T02:35:20.345Z,7.65
2022-08-26T02:37:49.516Z,7.80
2022-08-26T02:40:24.530Z,7.35
2022-08-26T02:42:52.830Z,7.30
2022-08-26T02:45:23.227Z,7.95
2022-08-26T02:47:52.367Z,7.68
2022-08-26T02:50:20.278Z,6.43
2022-08-26T02:52:48.534Z,7.15
2022-08-26T02:55:16.559Z,7.37
2022-08-26T02:57:44.230Z,6.95
2022-08-26T03:00:14.637Z,6.97
2022-08-26T03:02:42.144Z,6.93
2022-08-26T03:05:11.371Z,7.03
2022-08-26T03:07:38.884Z,6.90
2022-08-26T03:10:08.700Z,6.90
2022-08-26T03:12:37.083Z,6.65
2022-08-26T03:15:16.430Z,7.28
2022-08-26T03:17:50.350Z,7.62
2022-08-26T03:20:18.594Z,6.10
2022-08-26T03:22:46.433Z,6.60
2022-08-26T03:25:16.514Z,7.22
2022-08-26T03:27:44.015Z,7.12
2022-08-26T03:30:32.754Z,7.22
2022-08-26T03:33:00.693Z,7.00
2022-08-26T03:35:28.436Z,7.80
2022-08-26T03:37:56.054Z,7.10
2022-08-26T03:40:23.647Z,7.05
2022-08-26T03:42:56.805Z,6.40
2022-08-26T03:45:24.478Z,7.65
2022-08-26T03:47:52.010Z,6.97
2022-08-26T03:50:22.589Z,7.20
2022-08-26T03:52:52.079Z,6.93
2022-08-26T03:55:23.719Z,6.75
2022-08-26T03:57:52.416Z,6.18
2022-08-26T04:00:20.494Z,6.53
2022-08-26T04:02:51.262Z,6.57
2022-08-26T04:05:22.725Z,6.97
2022-08-26T04:07:51.101Z,7.20
2022-08-26T04:10:22.122Z,7.55
2022-08-26T04:12:58.976Z,7.20
2022-08-26T04:15:27.175Z,6.78
2022-08-26T04:17:55.800Z,7.10
2022-08-26T04:20:23.898Z,7.03
2022-08-26T04:22:51.402Z,7.40
2022-08-26T04:25:18.835Z,7.37
2022-08-26T04:27:48.480Z,8.15
2022-08-26T04:30:16.645Z,7.37
2022-08-26T04:32:44.305Z,7.35
2022-08-26T04:35:12.000Z,7.00
2022-08-26T04:37:39.391Z,7.32
2022-08-26T04:40:11.207Z,7.25
2022-08-26T04:42:38.968Z,8.10
2022-08-26T04:45:10.172Z,7.57
2022-08-26T04:47:39.451Z,7.03
2022-08-26T04:50:08.386Z,7.65
2022-08-26T04:52:38.885Z,7.70
2022-08-26T04:55:08.612Z,7.90
2022-08-26T04:57:36.443Z,7.22
2022-08-26T05:00:06.305Z,6.65
2022-08-26T05:02:34.293Z,6.87
2022-08-26T05:05:02.197Z,6.82
2022-08-26T05:07:31.221Z,7.50
2022-08-26T05:09:59.313Z,6.97
2022-08-26T05:12:28.654Z,6.80
2022-08-26T05:14:56.403Z,7.28
2022-08-26T05:17:24.849Z,7.00
2022-08-26T05:19:52.328Z,7.35
2022-08-26T05:22:20.291Z,7.62
2022-08-26T05:24:47.850Z,7.10
2022-08-26T05:27:15.316Z,7.78
2022-08-26T05:29:43.109Z,6.85
2022-08-26T05:32:11.798Z,7.00
2022-08-26T05:34:39.339Z,7.53
2022-08-26T05:37:10.667Z,6.87
2022-08-26T05:39:41.272Z,7.15
2022-08-26T05:42:11.151Z,6.55
2022-08-26T05:44:55.493Z,6.35
2022-08-26T05:47:25.510Z,6.53
2022-08-26T05:49:53.181Z,6.30
2022-08-26T05:52:20.658Z,6.30
2022-08-26T05:54:48.351Z,6.68
2022-08-26T05:57:16.169Z,6.72
2022-08-26T05:59:46.022Z,5.90
2022-08-26T06:02:13.737Z,6.85
2022-08-26T06:04:41.476Z,6.55
2022-08-26T06:07:11.936Z,6.22
2022-08-26T06:09:41.532Z,6.37
2022-08-26T06:12:09.164Z,6.05
2022-08-26T06:14:36.579Z,5.90
2022-08-26T06:17:04.625Z,5.50
2022-08-26T06:19:32.967Z,5.80
2022-08-26T06:22:23.356Z,5.18
2022-08-26T06:25:10.103Z,5.07
2022-08-26T06:27:37.622Z,5.50
2022-08-26T06:30:05.664Z,5.00
2022-08-26T06:32:33.739Z,5.07
2022-08-26T06:35:01.511Z,4.70
2022-08-26T06:37:29.573Z,4.78
2022-08-26T06:39:57.034Z,4.30
2022-08-26T06:42:25.132Z,4.75
2022-08-26T06:44:52.877Z,4.55
2022-08-26T06:47:20.571Z,5.00
2022-08-26T06:49:48.345Z,4.85
2022-08-26T06:52:23.059Z,4.72
2022-08-26T06:54:51.912Z,4.35
2022-08-26T06:57:20.719Z,4.07
2022-08-26T06:59:48.801Z,4.62
2022-08-26T07:02:19.607Z,3.80
2022-08-26T07:04:48.638Z,3.87
2022-08-26T07:07:18.609Z,4.03
2022-08-26T07:09:52.456Z,3.80
2022-08-26T07:12:22.994Z,3.83
2022-08-26T07:14:54.133Z,3.85
2022-08-26T07:17:24.981Z,3.90
2022-08-26T07:19:53.647Z,3.53
2022-08-26T07:22:21.036Z,3.83
2022-08-26T07:24:48.566Z,3.58
2022-08-26T07:27:16.879Z,3.60
2022-08-26T07:29:45.047Z,3.62
2022-08-26T07:32:14.441Z,3.78
2022-08-26T07:34:42.818Z,3.55
2022-08-26T07:37:10.991Z,4.20
2022-08-26T07:39:40.390Z,3.75
2022-08-26T07:42:09.426Z,3.62
2022-08-26T07:44:37.841Z,3.40
2022-08-26T07:47:24.078Z,3.95
2022-08-26T07:49:55.614Z,3.92
2022-08-26T07:52:26.893Z,4.18
2022-08-26T07:54:58.164Z,3.65
2022-08-26T07:57:26.795Z,3.62
2022-08-26T07:59:55.238Z,4.00
2022-08-26T08:02:24.761Z,3.72
2022-08-26T08:04:53.414Z,3.40
2022-08-26T08:07:21.639Z,3.62
2022-08-26T08:10:09.931Z,3.40
2022-08-26T08:12:40.813Z,3.60
2022-08-26T08:15:09.922Z,3.85
2022-08-26T08:17:37.405Z,4.22
2022-08-26T08:20:07.173Z,4.47
2022-08-26T08:22:35.444Z,3.67
2022-08-26T08:25:06.230Z,4.30
2022-08-26T08:27:36.959Z,4.00
2022-08-26T08:30:05.720Z,3.97
2022-08-26T08:32:33.140Z,3.95
2022-08-26T08:35:02.556Z,3.83
2022-08-26T08:37:38.372Z,3.87
2022-08-26T08:40:08.120Z,3.90
2022-08-26T08:45:36.564Z,4.03
2022-08-26T08:48:27.866Z,4.25
2022-08-26T08:51:18.187Z,4.62
2022-08-26T08:53:47.926Z,3.97
2022-08-26T08:56:29.107Z,4.18
2022-08-26T08:59:02.281Z,3.97
2022-08-26T09:01:42.315Z,4.12
2022-08-26T09:04:37.691Z,4.10
2022-08-26T09:07:09.180Z,4.12
2022-08-26T09:09:46.566Z,3.75
2022-08-26T09:12:29.406Z,3.85
2022-08-26T09:15:03.981Z,3.92
2022-08-26T09:18:06.060Z,4.00
2022-08-26T09:20:56.854Z,4.90
2022-08-26T09:23:25.349Z,4.05
2022-08-26T09:25:55.791Z,4.05
2022-08-26T09:28:25.720Z,4.62
2022-08-26T09:31:13.434Z,4.40
2022-08-26T09:33:41.589Z,4.37
2022-08-26T09:36:14.013Z,4.07
2022-08-26T09:38:42.649Z,4.43
2022-08-26T09:41:35.388Z,3.90
2022-08-26T09:44:14.715Z,4.00
2022-08-26T09:46:47.826Z,4.25
2022-08-26T09:49:31.616Z,3.90
2022-08-26T09:52:23.512Z,3.60
2022-08-26T09:55:06.508Z,3.87
2022-08-26T09:57:37.234Z,4.00
2022-08-26T10:00:37.745Z,4.05
2022-08-26T10:03:10.789Z,3.85
2022-08-26T10:05:55.000Z,3.97
2022-08-26T10:08:34.864Z,4.10
2022-08-26T10:11:11.135Z,3.90
2022-08-26T10:13:43.040Z,4.45
2022-08-26T10:16:15.603Z,3.85
2022-08-26T10:18:49.324Z,4.15
2022-08-26T10:21:26.147Z,4.72
2022-08-26T10:23:56.912Z,4.07
2022-08-26T10:26:28.280Z,3.50
2022-08-26T10:29:22.099Z,3.72
2022-08-26T10:32:14.701Z,3.72
2022-08-26T10:34:42.730Z,3.90
2022-08-26T10:37:17.910Z,3.92
2022-08-26T10:39:58.790Z,3.92
2022-08-26T10:42:33.162Z,3.62
2022-08-26T10:45:17.166Z,3.22
2022-08-26T10:47:59.980Z,3.60
2022-08-26T10:50:33.439Z,3.57
2022-08-26T10:53:17.862Z,3.40
2022-08-26T10:55:51.820Z,3.03
2022-08-26T10:58:54.408Z,3.35
2022-08-26T11:01:41.036Z,3.45
2022-08-26T11:04:22.409Z,3.50
2022-08-26T11:07:28.510Z,3.80
2022-08-26T11:10:30.753Z,3.15
2022-08-26T11:13:03.862Z,3.78
2022-08-26T11:15:31.712Z,4.05
2022-08-26T11:18:02.377Z,4.22
2022-08-26T11:20:37.459Z,3.00
2022-08-26T11:23:22.474Z,3.40
2022-08-26T11:26:01.938Z,3.00
2022-08-26T11:28:37.921Z,3.33
2022-08-26T11:31:09.652Z,3.30
2022-08-26T11:33:43.966Z,3.72
2022-08-26T11:36:28.189Z,3.95
2022-08-26T11:38:55.882Z,10.10
2022-08-26T11:41:29.128Z,4.00
2022-08-26T11:43:59.541Z,4.00
2022-08-26T11:46:31.430Z,4.47
2022-08-26T11:49:06.458Z,3.20
2022-08-26T11:51:40.063Z,3.20
2022-08-26T11:54:14.512Z,3.30
2022-08-26T11:56:45.968Z,3.70
2022-08-26T11:59:19.628Z,3.53
2022-08-26T12:01:50.225Z,3.50
2022-08-26T12:04:38.852Z,3.35
2022-08-26T12:07:08.822Z,3.65
2022-08-26T12:09:39.093Z,4.18
2022-08-26T12:12:18.362Z,3.90
2022-08-26T12:14:47.021Z,3.50
2022-08-26T12:17:20.045Z,3.70
2022-08-26T12:19:50.551Z,3.35
2022-08-26T12:22:29.471Z,3.67
2022-08-26T12:25:04.889Z,3.60
2022-08-26T12:27:35.160Z,3.12
2022-08-26T12:30:14.033Z,3.30
2022-08-26T12:32:51.101Z,3.37
2022-08-26T12:35:28.882Z,3.25
2022-08-26T12:37:57.724Z,3.25
2022-08-26T12:40:31.217Z,3.40
2022-08-26T12:43:00.792Z,3.15
2022-08-26T12:45:34.156Z,4.00
2022-08-26T12:50:40.746Z,2.78
2022-08-26T12:53:11.432Z,3.40
2022-08-26T12:55:45.440Z,3.75
2022-08-26T12:58:37.490Z,3.42
2022-08-26T13:01:05.040Z,3.40
2022-08-26T13:03:38.681Z,3.80
2022-08-26T13:06:16.079Z,4.75
2022-08-26T13:08:54.349Z,3.45
2022-08-26T13:11:25.552Z,3.58
2022-08-26T13:14:00.707Z,3.65
2022-08-26T13:16:29.835Z,3.55
2022-08-26T13:19:03.044Z,3.65
2022-08-26T13:21:41.362Z,3.77
2022-08-26T13:24:14.436Z,3.50
2022-08-26T13:26:45.775Z,4.07
2022-08-26T13:29:14.021Z,3.65
2022-08-26T13:31:44.041Z,3.85
2022-08-26T13:34:16.116Z,3.78
2022-08-26T13:36:44.833Z,3.28
2022-08-26T13:39:12.791Z,3.65
2022-08-26T13:41:40.899Z,3.35
2022-08-26T13:44:08.458Z,3.60
2022-08-26T13:46:36.549Z,3.08
2022-08-26T13:49:04.518Z,3.58
2022-08-26T13:51:32.628Z,3.67
2022-08-26T13:54:00.579Z,3.30
2022-08-26T13:56:32.127Z,3.90
2022-08-26T13:59:01.201Z,3.25
2022-08-26T14:01:30.910Z,3.62
2022-08-26T14:03:59.318Z,3.17
2022-08-26T14:06:26.884Z,3.40
2022-08-26T14:08:54.747Z,3.37
2022-08-26T14:11:23.195Z,4.07
2022-08-26T14:13:50.871Z,3.37
2022-08-26T14:16:28.109Z,4.12
2022-08-26T14:18:55.888Z,3.53
2022-08-26T14:21:24.154Z,3.35
2022-08-26T14:23:52.563Z,3.50
2022-08-26T14:26:28.384Z,3.40
2022-08-26T14:28:58.950Z,3.40
2022-08-26T14:31:29.331Z,3.45
2022-08-26T14:33:58.815Z,3.78
2022-08-26T14:36:29.486Z,3.75
2022-08-26T14:39:00.848Z,3.55
2022-08-26T14:41:30.101Z,3.50
2022-08-26T14:44:01.523Z,3.70
2022-08-26T14:46:30.833Z,4.25
2022-08-26T14:49:03.629Z,3.60
2022-08-26T14:51:32.864Z,3.72
2022-08-26T14:54:12.678Z,3.90
2022-08-26T14:56:52.461Z,3.78
2022-08-26T14:59:22.967Z,3.67
2022-08-26T15:01:51.323Z,3.78
2022-08-26T15:04:19.887Z,3.85
2022-08-26T15:06:48.239Z,3.70
2022-08-26T15:09:16.138Z,3.42
2022-08-26T15:11:43.745Z,3.35
2022-08-26T15:14:14.775Z,3.80
2022-08-26T15:16:49.016Z,3.62
2022-08-26T15:19:17.449Z,3.90
2022-08-26T15:21:47.312Z,3.65
2022-08-26T15:24:18.255Z,3.40
2022-08-26T15:26:46.801Z,3.35
2022-08-26T15:29:15.926Z,3.47
2022-08-26T15:31:43.611Z,3.47
2022-08-26T15:34:16.460Z,3.20
2022-08-26T15:36:46.406Z,3.50
2022-08-26T15:39:16.155Z,3.50
2022-08-26T15:41:43.636Z,3.17
2022-08-26T15:44:12.140Z,3.17
2022-08-26T15:46:40.256Z,3.35
2022-08-26T15:49:08.029Z,3.60
2022-08-26T15:51:45.639Z,3.58
2022-08-26T15:54:14.848Z,3.20
2022-08-26T15:56:43.589Z,3.40
2022-08-26T15:59:11.927Z,3.28
2022-08-26T16:01:41.375Z,2.95
2022-08-26T16:04:09.735Z,3.60
2022-08-26T16:06:39.213Z,3.60
2022-08-26T16:09:07.519Z,3.20
2022-08-26T16:11:36.051Z,3.40
2022-08-26T16:14:04.787Z,3.03
2022-08-26T16:16:32.512Z,2.97
2022-08-26T16:19:04.268Z,3.53
2022-08-26T16:21:34.672Z,3.45
2022-08-26T16:24:03.664Z,3.75
2022-08-26T16:26:33.167Z,3.28
2022-08-26T16:29:08.622Z,3.72
2022-08-26T16:31:38.032Z,3.97
2022-08-26T16:34:06.698Z,3.70
2022-08-26T16:36:38.296Z,3.58
2022-08-26T16:39:07.970Z,3.70
2022-08-26T16:41:35.712Z,3.70
2022-08-26T16:44:04.097Z,3.35
2022-08-26T16:46:33.677Z,3.62
2022-08-26T16:49:04.136Z,3.97
2022-08-26T16:51:32.636Z,3.80
2022-08-26T16:54:07.276Z,4.07
2022-08-26T16:56:35.719Z,3.83
2022-08-26T16:59:08.114Z,4.30
2022-08-26T17:01:36.108Z,4.43
2022-08-26T17:04:04.063Z,5.72
2022-08-26T17:06:31.729Z,5.15
2022-08-26T17:08:59.599Z,4.78
2022-08-26T17:11:27.139Z,4.55
2022-08-26T17:13:54.536Z,4.15
2022-08-26T17:16:26.668Z,4.10
2022-08-26T17:18:56.685Z,4.12
2022-08-26T17:21:25.539Z,4.32
2022-08-26T17:23:53.060Z,3.97
2022-08-26T17:26:20.634Z,4.00
2022-08-26T17:28:49.124Z,4.10
2022-08-26T17:31:16.744Z,3.97
2022-08-26T17:33:47.738Z,4.65
2022-08-26T17:36:18.198Z,3.53
2022-08-26T17:38:45.660Z,3.65
2022-08-26T17:41:16.432Z,4.00
2022-08-26T17:43:44.581Z,4.40
2022-08-26T17:46:12.834Z,4.37
2022-08-26T17:48:41.089Z,4.60
2022-08-26T17:51:12.166Z,5.10
2022-08-26T17:53:41.320Z,4.32
2022-08-26T17:56:11.780Z,4.40
2022-08-26T17:58:41.574Z,4.70
2022-08-26T18:01:21.028Z,5.00
2022-08-26T18:03:49.561Z,5.03
2022-08-26T18:06:17.181Z,4.72
2022-08-26T18:08:45.069Z,4.37
2022-08-26T18:11:15.498Z,4.90
2022-08-26T18:13:47.164Z,5.22
2022-08-26T18:16:17.130Z,5.22
2022-08-26T18:18:45.530Z,5.03
2022-08-26T18:21:18.903Z,7.07
2022-08-26T18:23:47.693Z,5.12
2022-08-26T18:26:16.812Z,4.40
2022-08-26T18:28:44.212Z,4.70
2022-08-26T18:31:12.356Z,5.28
2022-08-26T18:33:39.800Z,5.57
2022-08-26T18:36:07.568Z,5.00
2022-08-26T18:38:35.298Z,5.18
2022-08-26T18:41:04.277Z,5.05
2022-08-26T18:43:31.677Z,4.90
2022-08-26T18:46:07.682Z,5.68
2022-08-26T18:48:36.956Z,4.97
2022-08-26T18:51:04.891Z,4.57
2022-08-26T18:53:33.029Z,5.10
2022-08-26T18:56:01.940Z,5.22
2022-08-26T18:58:30.806Z,8.63
2022-08-26T19:00:58.611Z,8.38
2022-08-26T19:03:28.747Z,4.68
2022-08-26T19:05:56.484Z,6.00
2022-08-26T19:08:24.381Z,4.97
2022-08-26T19:10:52.244Z,4.87
2022-08-26T19:13:21.395Z,5.07
2022-08-26T19:15:49.279Z,6.65
2022-08-26T19:18:19.783Z,7.43
2022-08-26T19:20:48.079Z,5.35
2022-08-26T19:23:30.873Z,5.22
2022-08-26T19:26:00.005Z,5.87
2022-08-26T19:28:27.982Z,5.12
2022-08-26T19:30:55.648Z,4.82
2022-08-26T19:33:23.581Z,5.87
2022-08-26T19:35:52.013Z,5.35
2022-08-26T19:38:19.791Z,5.15
2022-08-26T19:40:48.330Z,5.47
2022-08-26T19:43:16.028Z,5.22
2022-08-26T19:45:44.729Z,4.45
2022-08-26T19:48:12.851Z,4.78
2022-08-26T19:50:40.687Z,4.65
2022-08-26T19:53:08.373Z,5.50
2022-08-26T19:55:36.515Z,5.05
2022-08-26T19:58:04.141Z,5.25
2022-08-26T20:00:32.341Z,5.45
2022-08-26T20:03:00.507Z,5.22
2022-08-26T20:05:28.392Z,5.28
2022-08-26T20:07:56.348Z,5.43
2022-08-26T20:10:24.380Z,5.03
2022-08-26T20:12:52.675Z,4.60
2022-08-26T20:15:22.119Z,5.40
2022-08-26T20:17:50.026Z,5.55
2022-08-26T20:20:36.239Z,5.80
2022-08-26T20:23:05.540Z,5.43
2022-08-26T20:25:34.686Z,5.68
2022-08-26T20:28:02.617Z,5.80
2022-08-26T20:30:30.622Z,5.85
2022-08-26T20:32:59.186Z,6.20
2022-08-26T20:35:27.487Z,5.40
2022-08-26T20:37:55.351Z,6.37
2022-08-26T20:40:23.422Z,5.47
2022-08-26T20:42:51.905Z,4.97
2022-08-26T20:45:20.293Z,5.55
2022-08-26T20:47:48.797Z,5.65
2022-08-26T20:50:16.332Z,5.82
2022-08-26T20:52:44.080Z,5.55
2022-08-26T20:55:11.674Z,4.40
2022-08-26T20:57:39.182Z,4.50
2022-08-26T21:00:07.878Z,5.00
2022-08-26T21:02:35.765Z,5.65
2022-08-26T21:05:03.439Z,5.10
2022-08-26T21:07:31.363Z,4.82
2022-08-26T21:09:59.293Z,4.78
2022-08-26T21:12:27.164Z,5.35
2022-08-26T21:14:55.003Z,5.20
2022-08-26T21:17:22.997Z,5.80
2022-08-26T21:19:51.502Z,5.43
2022-08-26T21:22:19.987Z,5.70
2022-08-26T21:24:48.343Z,5.15
2022-08-26T21:27:17.646Z,4.75
2022-08-26T21:29:52.627Z,4.68
2022-08-26T21:32:20.678Z,5.25
2022-08-26T21:34:48.322Z,5.75
2022-08-26T21:37:16.750Z,6.70
2022-08-26T21:39:44.546Z,5.03
2022-08-26T21:42:12.731Z,5.15
2022-08-26T21:44:40.564Z,5.37
2022-08-26T21:47:08.553Z,5.57
2022-08-26T21:49:36.209Z,5.60
2022-08-26T21:52:06.703Z,5.12
2022-08-26T21:54:34.303Z,5.10
2022-08-26T21:57:01.845Z,4.78
2022-08-26T21:59:29.658Z,4.82
2022-08-26T22:01:57.990Z,5.00
2022-08-26T22:04:26.130Z,5.28
2022-08-26T22:06:55.345Z,5.32
2022-08-26T22:09:24.846Z,5.03
2022-08-26T22:11:53.281Z,4.57
2022-08-26T22:14:30.447Z,5.45
2022-08-26T22:16:59.156Z,5.35
2022-08-26T22:19:26.762Z,5.90
2022-08-26T22:21:55.096Z,5.37
2022-08-26T22:24:24.058Z,5.35
2022-08-26T22:26:51.953Z,5.45
2022-08-26T22:29:20.077Z,5.80
2022-08-26T22:31:47.873Z,5.93
2022-08-26T22:34:17.407Z,5.50
2022-08-26T22:36:46.998Z,5.32
2022-08-26T22:39:16.801Z,5.90
2022-08-26T22:41:45.331Z,6.30
2022-08-26T22:44:12.983Z,5.90
2022-08-26T22:46:42.042Z,5.55
2022-08-26T22:49:12.537Z,5.20
2022-08-26T22:51:39.988Z,5.03
2022-08-26T22:54:08.014Z,4.80
2022-08-26T22:56:36.424Z,4.65
2022-08-26T22:59:05.448Z,5.00
2022-08-26T23:01:36.314Z,4.75
2022-08-26T23:04:04.915Z,4.90
2022-08-26T23:06:36.230Z,4.37
2022-08-26T23:09:04.737Z,4.78
2022-08-26T23:11:32.204Z,4.95
2022-08-26T23:14:06.269Z,5.80
2022-08-26T23:16:37.847Z,5.45
2022-08-26T23:19:11.964Z,5.15
2022-08-26T23:21:40.233Z,5.60
2022-08-26T23:24:08.212Z,4.65
2022-08-26T23:26:36.655Z,5.25
2022-08-26T23:29:05.481Z,5.37
2022-08-26T23:31:34.103Z,4.78
2022-08-26T23:34:20.048Z,4.95
2022-08-26T23:36:48.224Z,4.97
2022-08-26T23:39:16.040Z,5.82
2022-08-26T23:41:43.601Z,5.55
2022-08-26T23:44:12.373Z,5.78
2022-08-26T23:46:39.947Z,6.25
2022-08-26T23:49:07.384Z,5.62
2022-08-26T23:51:54.052Z,5.10
2022-08-26T23:54:21.492Z,5.22
2022-08-26T23:56:49.550Z,5.03
2022-08-26T23:59:16.967Z,5.10
